createdAt,value
2024-05-09T00:01:04.129Z,20.83
2024-05-09T00:03:34.303Z,22.17
2024-05-09T00:06:04.501Z,23.90
2024-05-09T00:08:34.643Z,22.10
2024-05-09T00:11:04.788Z,24.30
2024-05-09T00:13:34.872Z,21.90
2024-05-09T00:16:08.889Z,24.03
2024-05-09T00:18:38.909Z,22.80
2024-05-09T00:21:09.876Z,24.30
2024-05-09T00:23:39.915Z,24.87
2024-05-09T00:26:09.895Z,24.23
2024-05-09T00:28:40.001Z,22.57
2024-05-09T00:31:12.565Z,23.17
2024-05-09T00:33:42.723Z,24.07
2024-05-09T00:36:12.766Z,26.17
2024-05-09T00:38:42.714Z,24.73
2024-05-09T00:41:13.421Z,24.90
2024-05-09T00:43:44.112Z,25.73
2024-05-09T00:46:17.071Z,25.90
2024-05-09T00:48:47.333Z,25.53
2024-05-09T00:51:17.825Z,24.63
2024-05-09T00:53:49.066Z,24.90
2024-05-09T00:56:22.146Z,26.40
2024-05-09T00:58:53.237Z,24.83
2024-05-09T01:01:27.666Z,25.60
2024-05-09T01:03:58.158Z,23.23
2024-05-09T01:06:28.457Z,25.37
2024-05-09T01:08:58.349Z,25.57
2024-05-09T01:11:36.372Z,23.87
2024-05-09T01:14:06.576Z,24.83
2024-05-09T01:16:39.307Z,26.47
2024-05-09T01:19:15.955Z,24.50
2024-05-09T01:21:46.948Z,25.97
2024-05-09T01:24:19.566Z,24.87
2024-05-09T01:26:49.617Z,19.90
2024-05-09T01:29:20.212Z,25.87
2024-05-09T01:31:52.221Z,25.17
2024-05-09T01:34:22.332Z,26.63
2024-05-09T01:36:52.614Z,27.03
2024-05-09T01:39:25.423Z,27.07
2024-05-09T01:41:55.363Z,27.40
2024-05-09T01:44:25.407Z,26.53
2024-05-09T01:46:55.551Z,25.97
2024-05-09T01:49:25.845Z,27.43
2024-05-09T01:51:58.660Z,24.97
2024-05-09T01:54:31.245Z,25.40
2024-05-09T01:57:01.153Z,25.20
2024-05-09T01:59:31.232Z,27.60
2024-05-09T02:02:01.547Z,26.63
2024-05-09T02:04:31.870Z,26.43
2024-05-09T02:07:02.200Z,25.67
2024-05-09T02:09:34.783Z,25.83
2024-05-09T02:12:04.905Z,25.90
2024-05-09T02:14:35.019Z,26.50
2024-05-09T02:17:05.058Z,24.37
2024-05-09T02:19:35.133Z,26.80
2024-05-09T02:22:05.059Z,25.97
2024-05-09T02:24:37.603Z,24.20
2024-05-09T02:27:08.170Z,25.07
2024-05-09T02:29:38.180Z,26.23
2024-05-09T02:32:08.822Z,27.20
2024-05-09T02:34:38.853Z,25.73
2024-05-09T02:37:08.939Z,23.27
2024-05-09T02:39:38.889Z,27.70
2024-05-09T02:42:08.874Z,24.87
2024-05-09T02:44:36.342Z,25.10
2024-05-09T02:47:06.516Z,25.07
2024-05-09T02:49:34.099Z,25.67
2024-05-09T02:52:04.037Z,24.10
2024-05-09T02:54:31.394Z,25.97
2024-05-09T02:57:03.952Z,27.80
2024-05-09T02:59:31.363Z,25.50
2024-05-09T03:02:01.482Z,24.20
2024-05-09T03:04:29.029Z,24.73
2024-05-09T03:06:58.955Z,25.80
2024-05-09T03:09:26.242Z,26.43
2024-05-09T03:11:56.238Z,25.13
2024-05-09T03:14:26.244Z,27.30
2024-05-09T03:16:56.252Z,30.30
2024-05-09T03:19:23.697Z,45.97
2024-05-09T03:21:53.690Z,39.57
2024-05-09T03:24:21.007Z,37.53
2024-05-09T03:26:51.219Z,33.33
2024-05-09T03:29:19.050Z,32.07
2024-05-09T03:31:51.697Z,28.77
2024-05-09T03:34:19.206Z,25.53
2024-05-09T03:36:49.172Z,26.63
2024-05-09T03:39:19.124Z,25.13
2024-05-09T03:41:49.020Z,24.83
2024-05-09T03:44:20.542Z,20.97
2024-05-09T03:46:53.128Z,24.77
2024-05-09T03:49:20.556Z,25.33
2024-05-09T03:51:50.531Z,24.63
2024-05-09T03:54:17.928Z,25.37
2024-05-09T03:56:47.807Z,25.00
2024-05-09T03:59:15.245Z,25.13
2024-05-09T04:01:45.295Z,25.20
2024-05-09T04:04:15.420Z,26.47
2024-05-09T04:06:45.860Z,28.80
2024-05-09T04:09:14.396Z,28.20
2024-05-09T04:11:44.354Z,31.87
2024-05-09T04:14:11.745Z,32.83
2024-05-09T04:16:41.745Z,35.80
2024-05-09T04:19:09.212Z,31.70
2024-05-09T04:21:41.813Z,32.17
2024-05-09T04:24:09.106Z,30.40
2024-05-09T04:26:39.009Z,29.17
2024-05-09T04:29:06.459Z,33.80
2024-05-09T04:31:39.143Z,27.93
2024-05-09T04:34:06.596Z,29.17
2024-05-09T04:36:36.615Z,33.57
2024-05-09T04:39:06.576Z,27.77
2024-05-09T04:41:36.532Z,36.87
2024-05-09T04:44:03.979Z,33.50
2024-05-09T04:46:33.875Z,31.80
2024-05-09T04:49:01.280Z,27.37
2024-05-09T04:51:31.313Z,55.73
2024-05-09T04:53:58.606Z,29.00
2024-05-09T04:56:31.286Z,40.37
2024-05-09T04:58:58.690Z,25.27
2024-05-09T05:01:28.788Z,41.50
2024-05-09T05:03:56.304Z,24.03
2024-05-09T05:06:27.387Z,23.90
2024-05-09T05:08:54.671Z,39.23
2024-05-09T05:11:24.771Z,45.47
2024-05-09T05:13:54.774Z,32.50
2024-05-09T05:16:24.727Z,26.27
2024-05-09T05:18:52.266Z,38.57
2024-05-09T05:21:23.927Z,45.87
2024-05-09T05:23:51.332Z,57.70
2024-05-09T05:26:21.366Z,26.97
2024-05-09T05:28:48.731Z,28.73
2024-05-09T05:31:21.430Z,38.57
2024-05-09T05:33:51.722Z,43.47
2024-05-09T05:36:19.156Z,53.93
2024-05-09T05:38:49.154Z,32.33
2024-05-09T05:41:16.595Z,36.43
2024-05-09T05:43:46.679Z,56.27
2024-05-09T05:46:14.082Z,36.57
2024-05-09T05:48:46.790Z,34.30
2024-05-09T05:51:14.351Z,39.77
2024-05-09T05:53:44.721Z,32.10
2024-05-09T05:56:12.226Z,41.70
2024-05-09T05:58:43.246Z,46.37
2024-05-09T06:01:10.666Z,37.23
2024-05-09T06:03:40.823Z,42.67
2024-05-09T06:06:13.393Z,46.17
2024-05-09T06:08:43.524Z,38.30
2024-05-09T06:11:11.006Z,33.63
2024-05-09T06:13:45.433Z,35.43
2024-05-09T06:16:12.811Z,33.23
2024-05-09T06:18:42.815Z,54.57
2024-05-09T06:21:12.977Z,31.90
2024-05-09T06:23:48.479Z,31.17
2024-05-09T06:26:16.056Z,34.47
2024-05-09T06:28:46.593Z,35.63
2024-05-09T06:31:14.010Z,30.63
2024-05-09T06:33:44.728Z,29.00
2024-05-09T06:36:15.103Z,32.97
2024-05-09T06:38:45.122Z,32.47
2024-05-09T06:41:12.541Z,32.17
2024-05-09T06:44:41.281Z,31.77
2024-05-09T06:47:11.364Z,33.67
2024-05-09T06:49:38.833Z,33.37
2024-05-09T06:52:13.011Z,33.30
2024-05-09T06:54:40.905Z,34.07
2024-05-09T06:57:11.153Z,34.93
2024-05-09T06:59:38.922Z,33.93
2024-05-09T07:02:09.026Z,32.27
2024-05-09T07:04:36.618Z,33.50
2024-05-09T07:07:09.303Z,33.53
2024-05-09T07:09:39.271Z,33.73
2024-05-09T07:12:09.499Z,34.40
2024-05-09T07:14:38.156Z,32.50
2024-05-09T07:17:10.080Z,34.97
2024-05-09T07:19:37.748Z,31.90
2024-05-09T07:22:07.758Z,32.50
2024-05-09T07:24:38.290Z,35.03
2024-05-09T07:27:08.347Z,35.87
2024-05-09T07:29:38.294Z,35.77
2024-05-09T07:32:09.274Z,33.87
2024-05-09T07:34:36.737Z,34.63
2024-05-09T07:37:12.664Z,33.57
2024-05-09T07:39:42.745Z,34.37
2024-05-09T07:42:12.665Z,34.57
2024-05-09T07:44:40.055Z,36.00
2024-05-09T07:48:14.808Z,33.57
2024-05-09T07:53:32.613Z,33.97
2024-05-09T07:55:20.301Z,34.07
2024-05-09T07:57:50.352Z,33.60
2024-05-09T08:00:23.787Z,34.90
2024-05-09T08:02:59.563Z,32.37
2024-05-09T08:05:27.044Z,35.27
2024-05-09T08:07:58.048Z,34.13
2024-05-09T08:10:29.217Z,33.57
2024-05-09T08:13:00.672Z,34.83
2024-05-09T08:15:28.158Z,33.37
2024-05-09T08:17:58.311Z,32.40
2024-05-09T08:20:31.113Z,34.50
2024-05-09T08:23:04.904Z,34.53
2024-05-09T08:25:34.869Z,32.60
2024-05-09T08:28:06.932Z,31.90
2024-05-09T08:30:37.281Z,33.30
2024-05-09T08:33:09.058Z,30.90
2024-05-09T08:35:39.424Z,30.40
2024-05-09T08:38:10.513Z,29.90
2024-05-09T08:40:42.386Z,30.63
2024-05-09T08:43:13.402Z,30.00
2024-05-09T08:45:44.109Z,28.37
2024-05-09T08:48:16.665Z,28.80
2024-05-09T08:50:47.118Z,28.93
2024-05-09T08:53:15.241Z,26.93
2024-05-09T08:55:49.250Z,27.70
2024-05-09T08:58:18.100Z,24.27
2024-05-09T09:00:49.898Z,25.83
2024-05-09T09:03:19.631Z,25.93
2024-05-09T09:05:55.896Z,25.33
2024-05-09T09:08:23.366Z,25.30
2024-05-09T09:11:00.273Z,25.00
2024-05-09T09:13:28.272Z,26.03
2024-05-09T09:15:59.283Z,27.63
2024-05-09T09:18:27.788Z,26.10
2024-05-09T09:20:58.224Z,26.00
2024-05-09T09:23:28.454Z,26.20
2024-05-09T09:26:04.091Z,24.60
2024-05-09T09:28:31.423Z,24.70
2024-05-09T09:31:05.172Z,23.00
2024-05-09T09:33:33.117Z,22.77
2024-05-09T09:36:06.827Z,22.13
2024-05-09T09:38:37.509Z,24.43
2024-05-09T09:41:11.485Z,25.23
2024-05-09T09:43:40.705Z,24.47
2024-05-09T09:46:12.782Z,24.97
2024-05-09T09:48:41.679Z,23.17
2024-05-09T09:51:12.218Z,25.33
2024-05-09T09:53:39.996Z,22.80
2024-05-09T09:56:13.696Z,22.30
2024-05-09T09:58:42.569Z,21.70
2024-05-09T10:01:12.616Z,23.03
2024-05-09T10:03:41.217Z,24.80
2024-05-09T10:06:12.131Z,22.77
2024-05-09T10:08:40.074Z,22.43
2024-05-09T10:11:13.213Z,23.40
2024-05-09T10:13:41.748Z,21.30
2024-05-09T10:16:13.030Z,24.10
2024-05-09T10:18:41.375Z,22.70
2024-05-09T10:21:21.542Z,25.90
2024-05-09T10:24:07.154Z,22.53
2024-05-09T10:26:41.221Z,21.70
2024-05-09T10:29:12.406Z,22.27
2024-05-09T10:31:44.780Z,21.43
2024-05-09T10:34:17.809Z,21.43
2024-05-09T10:36:47.914Z,21.50
2024-05-09T10:39:16.006Z,22.47
2024-05-09T10:41:48.588Z,20.20
2024-05-09T10:44:17.038Z,18.90
2024-05-09T10:46:47.807Z,19.20
2024-05-09T10:49:15.318Z,21.07
2024-05-09T10:51:48.338Z,20.77
2024-05-09T10:54:16.395Z,21.50
2024-05-09T10:56:48.952Z,19.40
2024-05-09T10:59:16.295Z,19.73
2024-05-09T11:01:46.404Z,19.20
2024-05-09T11:04:14.537Z,18.37
2024-05-09T11:06:45.001Z,19.10
2024-05-09T11:09:12.574Z,18.13
2024-05-09T11:11:42.618Z,18.30
2024-05-09T11:14:17.262Z,20.73
2024-05-09T11:16:47.220Z,20.10
2024-05-09T11:19:14.875Z,19.03
2024-05-09T11:21:45.072Z,17.53
2024-05-09T11:24:12.790Z,18.80
2024-05-09T11:26:42.934Z,18.53
2024-05-09T11:29:10.357Z,18.07
2024-05-09T11:31:51.455Z,17.70
2024-05-09T11:34:18.835Z,12.70
2024-05-09T11:36:48.967Z,17.33
2024-05-09T11:39:16.375Z,15.30
2024-05-09T11:41:46.320Z,14.90
2024-05-09T11:44:13.728Z,13.63
2024-05-09T11:46:43.937Z,12.73
2024-05-09T11:49:14.109Z,14.60
2024-05-09T11:51:44.146Z,13.73
2024-05-09T11:54:11.498Z,14.13
2024-05-09T11:56:41.419Z,14.80
2024-05-09T11:59:09.586Z,14.50
2024-05-09T12:01:39.695Z,13.03
2024-05-09T12:04:07.266Z,13.80
2024-05-09T12:06:40.005Z,13.20
2024-05-09T12:09:07.441Z,12.40
2024-05-09T12:11:37.410Z,12.83
2024-05-09T12:14:04.742Z,12.40
2024-05-09T12:16:34.764Z,12.00
2024-05-09T12:19:02.183Z,11.17
2024-05-09T12:21:32.255Z,10.47
2024-05-09T12:24:02.213Z,10.80
2024-05-09T12:26:32.297Z,12.00
2024-05-09T12:28:59.615Z,11.33
2024-05-09T12:31:29.635Z,9.33
2024-05-09T12:33:57.083Z,10.70
2024-05-09T12:36:27.126Z,10.67
2024-05-09T12:38:54.447Z,11.43
2024-05-09T12:41:27.798Z,12.70
2024-05-09T12:43:55.069Z,12.40
2024-05-09T12:46:25.284Z,11.20
2024-05-09T12:48:53.398Z,10.53
2024-05-09T12:51:23.490Z,11.33
2024-05-09T12:53:50.829Z,13.50
2024-05-09T12:56:20.764Z,11.73
2024-05-09T12:58:51.649Z,12.07
2024-05-09T13:01:21.845Z,11.87
2024-05-09T13:03:49.392Z,12.47
2024-05-09T13:06:19.502Z,9.47
2024-05-09T13:08:47.931Z,9.73
2024-05-09T13:11:17.992Z,11.40
2024-05-09T13:13:45.273Z,13.17
2024-05-09T13:16:18.084Z,10.77
2024-05-09T13:18:45.645Z,10.33
2024-05-09T13:21:15.608Z,9.17
2024-05-09T13:23:42.940Z,10.13
2024-05-09T13:26:13.041Z,11.80
2024-05-09T13:28:40.358Z,10.00
2024-05-09T13:31:10.426Z,11.87
2024-05-09T13:33:40.540Z,10.40
2024-05-09T13:36:11.049Z,10.53
2024-05-09T13:38:38.380Z,10.13
2024-05-09T13:41:08.562Z,8.93
2024-05-09T13:43:35.873Z,8.50
2024-05-09T13:46:06.480Z,8.53
2024-05-09T13:48:34.651Z,9.27
2024-05-09T13:51:07.775Z,8.60
2024-05-09T13:53:35.103Z,9.50
2024-05-09T13:56:05.224Z,9.70
2024-05-09T13:58:32.607Z,8.80
2024-05-09T14:01:02.713Z,9.83
2024-05-09T14:03:30.226Z,9.40
2024-05-09T14:06:00.571Z,8.60
2024-05-09T14:08:30.561Z,9.60
2024-05-09T14:11:00.726Z,9.90
2024-05-09T14:13:28.238Z,10.00
2024-05-09T14:15:58.382Z,9.13
2024-05-09T14:18:28.657Z,10.00
2024-05-09T14:20:56.012Z,10.47
2024-05-09T14:23:25.946Z,9.33
2024-05-09T14:25:55.953Z,9.27
2024-05-09T14:28:27.040Z,8.63
2024-05-09T14:30:56.611Z,9.00
2024-05-09T14:33:27.618Z,8.13
2024-05-09T14:35:55.151Z,8.10
2024-05-09T14:38:25.613Z,9.57
2024-05-09T14:40:55.931Z,6.93
2024-05-09T14:43:26.421Z,7.67
2024-05-09T14:45:54.184Z,9.07
2024-05-09T14:48:24.387Z,7.33
2024-05-09T14:50:51.691Z,7.27
2024-05-09T14:53:23.567Z,7.43
2024-05-09T14:55:50.982Z,8.33
2024-05-09T14:58:23.830Z,7.83
2024-05-09T15:00:54.491Z,7.10
2024-05-09T15:03:24.590Z,8.73
2024-05-09T15:05:52.497Z,7.33
2024-05-09T15:08:22.738Z,7.17
2024-05-09T15:10:53.011Z,6.77
2024-05-09T15:13:24.649Z,6.60
2024-05-09T15:15:55.835Z,7.90
2024-05-09T15:18:23.341Z,6.63
2024-05-09T15:20:53.523Z,8.37
2024-05-09T15:23:20.830Z,8.97
2024-05-09T15:25:50.762Z,8.87
2024-05-09T15:28:18.626Z,10.10
2024-05-09T15:30:51.281Z,9.57
2024-05-09T15:33:18.775Z,10.00
2024-05-09T15:35:49.371Z,10.07
2024-05-09T15:38:18.392Z,9.10
2024-05-09T15:40:48.771Z,8.50
2024-05-09T15:43:16.240Z,9.30
2024-05-09T15:45:46.231Z,9.70
2024-05-09T15:48:16.382Z,8.87
2024-05-09T15:50:46.522Z,14.37
2024-05-09T15:53:13.969Z,12.90
2024-05-09T15:55:45.207Z,12.13
2024-05-09T15:58:13.160Z,9.60
2024-05-09T16:00:46.201Z,8.30
2024-05-09T16:03:17.793Z,9.40
2024-05-09T16:05:48.401Z,9.33
2024-05-09T16:08:16.440Z,9.97
2024-05-09T16:10:47.710Z,9.80
2024-05-09T16:13:16.096Z,10.47
2024-05-09T16:15:46.590Z,9.50
2024-05-09T16:18:14.206Z,11.03
2024-05-09T16:20:49.457Z,11.63
2024-05-09T16:23:17.795Z,12.80
2024-05-09T16:25:48.567Z,12.27
2024-05-09T16:28:16.737Z,11.93
2024-05-09T16:30:46.780Z,12.50
2024-05-09T16:33:14.305Z,13.43
2024-05-09T16:35:46.981Z,12.03
2024-05-09T16:38:14.380Z,13.97
2024-05-09T16:40:44.347Z,11.90
2024-05-09T16:43:13.175Z,14.20
2024-05-09T16:45:45.226Z,14.67
2024-05-09T16:48:14.030Z,15.17
2024-05-09T16:50:46.815Z,15.13
2024-05-09T16:53:14.166Z,14.20
2024-05-09T16:55:44.078Z,13.77
2024-05-09T16:58:12.384Z,12.30
2024-05-09T17:00:43.953Z,13.00
2024-05-09T17:03:14.962Z,13.70
2024-05-09T17:05:50.391Z,13.00
2024-05-09T17:08:18.369Z,14.47
2024-05-09T17:10:49.681Z,13.20
2024-05-09T17:13:20.394Z,13.90
2024-05-09T17:15:51.020Z,13.20
2024-05-09T17:18:21.547Z,13.23
2024-05-09T17:20:54.942Z,14.10
2024-05-09T17:23:22.466Z,14.67
2024-05-09T17:25:52.482Z,13.57
2024-05-09T17:28:20.220Z,14.73
2024-05-09T17:30:50.428Z,13.93
2024-05-09T17:33:17.977Z,15.20
2024-05-09T17:35:50.392Z,13.40
2024-05-09T17:38:23.335Z,13.47
2024-05-09T17:40:53.738Z,12.93
2024-05-09T17:43:21.398Z,12.77
2024-05-09T17:45:51.572Z,14.57
2024-05-09T17:48:19.728Z,14.97
2024-05-09T17:50:51.501Z,13.63
2024-05-09T17:53:21.575Z,15.23
2024-05-09T17:55:53.899Z,15.40
2024-05-09T17:58:21.606Z,14.80
2024-05-09T18:00:52.796Z,14.73
2024-05-09T18:03:22.860Z,15.10
2024-05-09T18:05:52.902Z,14.67
2024-05-09T18:08:22.900Z,14.60
2024-05-09T18:10:55.226Z,13.70
2024-05-09T18:13:23.027Z,14.27
2024-05-09T18:15:53.126Z,13.07
2024-05-09T18:18:20.600Z,13.53
2024-05-09T18:20:50.632Z,13.57
2024-05-09T18:23:18.839Z,14.03
2024-05-09T18:25:54.602Z,14.10
2024-05-09T18:28:22.565Z,21.23
2024-05-09T18:30:52.807Z,16.60
2024-05-09T18:33:20.695Z,15.80
2024-05-09T18:35:50.789Z,15.90
2024-05-09T18:38:18.554Z,16.03
2024-05-09T18:40:51.136Z,17.13
2024-05-09T18:43:20.394Z,16.30
2024-05-09T18:45:54.229Z,16.63
2024-05-09T18:48:22.248Z,16.73
2024-05-09T18:50:54.525Z,16.57
2024-05-09T18:53:21.879Z,17.20
2024-05-09T18:55:54.569Z,18.37
2024-05-09T18:58:22.093Z,17.53
2024-05-09T19:00:54.311Z,18.30
2024-05-09T19:03:23.050Z,18.47
2024-05-09T19:05:53.430Z,18.13
2024-05-09T19:08:20.835Z,17.50
2024-05-09T19:10:52.553Z,16.00
2024-05-09T19:13:22.638Z,16.60
2024-05-09T19:15:52.740Z,17.40
2024-05-09T19:18:22.298Z,16.50
2024-05-09T19:20:52.441Z,17.30
2024-05-09T19:23:19.933Z,16.30
2024-05-09T19:25:52.455Z,16.13
2024-05-09T19:28:22.469Z,16.33
2024-05-09T19:30:52.890Z,16.30
2024-05-09T19:33:20.280Z,16.43
2024-05-09T19:35:50.658Z,18.03
2024-05-09T19:38:18.039Z,17.17
2024-05-09T19:40:48.668Z,17.67
2024-05-09T19:43:16.136Z,16.63
2024-05-09T19:45:48.810Z,16.30
2024-05-09T19:48:16.538Z,16.37
2024-05-09T19:50:48.323Z,17.97
2024-05-09T19:53:17.818Z,16.93
2024-05-09T19:55:47.744Z,15.77
2024-05-09T19:58:15.907Z,17.40
2024-05-09T20:00:48.776Z,18.27
2024-05-09T20:03:16.514Z,16.67
2024-05-09T20:05:48.000Z,17.00
2024-05-09T20:08:16.334Z,17.70
2024-05-09T20:10:46.504Z,18.20
2024-05-09T20:13:14.223Z,16.80
2024-05-09T20:15:44.380Z,16.30
2024-05-09T20:18:16.809Z,18.13
2024-05-09T20:20:48.421Z,17.13
2024-05-09T20:23:17.243Z,17.00
2024-05-09T20:25:47.144Z,17.67
2024-05-09T20:28:17.206Z,18.20
2024-05-09T20:30:44.714Z,17.30
2024-05-09T20:33:17.270Z,17.17
2024-05-09T20:35:44.644Z,18.40
2024-05-09T20:38:14.590Z,18.20
2024-05-09T20:40:43.740Z,18.10
2024-05-09T20:43:13.768Z,18.50
2024-05-09T20:45:41.469Z,17.20
2024-05-09T20:48:12.299Z,17.93
2024-05-09T20:50:42.930Z,18.30
2024-05-09T20:53:15.100Z,20.50
2024-05-09T20:55:43.485Z,19.53
2024-05-09T20:58:13.952Z,19.17
2024-05-09T21:00:44.498Z,18.37
2024-05-09T21:03:17.806Z,18.60
2024-05-09T21:05:48.652Z,17.80
2024-05-09T21:08:19.768Z,18.73
2024-05-09T21:10:47.391Z,18.73
2024-05-09T21:13:17.592Z,20.63
2024-05-09T21:15:45.016Z,19.23
2024-05-09T21:18:15.143Z,18.73
2024-05-09T21:20:42.752Z,18.13
2024-05-09T21:23:15.310Z,19.03
2024-05-09T21:25:42.969Z,19.67
2024-05-09T21:28:14.752Z,19.00
2024-05-09T21:30:43.280Z,20.83
2024-05-09T21:33:15.082Z,18.17
2024-05-09T21:35:43.711Z,18.53
2024-05-09T21:38:17.782Z,18.90
2024-05-09T21:40:45.598Z,18.37
2024-05-09T21:43:15.779Z,19.23
2024-05-09T21:45:43.339Z,19.80
2024-05-09T21:48:15.633Z,18.17
2024-05-09T21:50:43.172Z,19.27
2024-05-09T21:53:16.714Z,17.90
2024-05-09T21:55:44.125Z,18.60
2024-05-09T21:58:16.027Z,19.50
2024-05-09T22:00:45.631Z,18.90
2024-05-09T22:03:16.892Z,19.13
2024-05-09T22:05:45.098Z,18.37
2024-05-09T22:08:18.135Z,18.30
2024-05-09T22:10:45.700Z,19.30
2024-05-09T22:13:16.848Z,19.57
2024-05-09T22:15:44.639Z,19.70
2024-05-09T22:18:14.935Z,19.20
2024-05-09T22:20:45.452Z,20.50
2024-05-09T22:23:19.073Z,18.93
2024-05-09T22:25:46.424Z,18.80
2024-05-09T22:28:17.720Z,21.17
2024-05-09T22:30:47.067Z,20.70
2024-05-09T22:33:18.011Z,19.90
2024-05-09T22:35:45.536Z,18.53
2024-05-09T22:38:18.160Z,19.30
2024-05-09T22:40:48.808Z,20.83
2024-05-09T22:43:23.897Z,20.03
2024-05-09T22:45:52.722Z,20.07
2024-05-09T22:48:23.697Z,20.07
2024-05-09T22:50:51.654Z,20.13
2024-05-09T22:53:24.563Z,20.90
2024-05-09T22:55:51.935Z,20.70
2024-05-09T22:58:22.454Z,21.13
2024-05-09T23:00:50.134Z,19.70
2024-05-09T23:03:21.908Z,21.53
2024-05-09T23:05:49.996Z,19.80
2024-05-09T23:08:19.928Z,19.80
2024-05-09T23:10:50.005Z,19.87
2024-05-09T23:13:20.351Z,20.20
2024-05-09T23:15:47.859Z,20.87
2024-05-09T23:18:17.964Z,20.90
2024-05-09T23:20:45.442Z,20.73
2024-05-09T23:23:15.361Z,22.03
2024-05-09T23:25:43.349Z,22.13
2024-05-09T23:28:16.104Z,22.53
2024-05-09T23:30:43.614Z,23.87
2024-05-09T23:33:14.814Z,23.10
2024-05-09T23:35:43.999Z,22.73
2024-05-09T23:38:14.540Z,22.77
2024-05-09T23:40:42.932Z,21.40
2024-05-09T23:43:17.180Z,20.80
2024-05-09T23:45:44.904Z,22.17
2024-05-09T23:48:14.976Z,22.00
2024-05-09T23:50:42.370Z,22.83
2024-05-09T23:53:14.123Z,23.30
2024-05-09T23:55:41.588Z,23.40
2024-05-09T23:58:11.792Z,23.40
